createdAt,value
2023-05-03T00:00:56.667Z,4.61
2023-05-03T00:03:23.990Z,4.54
2023-05-03T00:05:50.736Z,4.52
2023-05-03T00:08:17.387Z,4.54
2023-05-03T00:10:44.107Z,4.46
2023-05-03T00:13:10.873Z,4.51
2023-05-03T00:15:37.595Z,4.44
2023-05-03T00:18:04.367Z,4.33
2023-05-03T00:20:31.234Z,4.36
2023-05-03T00:22:57.912Z,4.31
2023-05-03T00:25:24.647Z,4.13
2023-05-03T00:27:51.350Z,4.06
2023-05-03T00:30:19.526Z,3.91
2023-05-03T00:32:46.416Z,3.90
2023-05-03T00:35:13.109Z,3.95
2023-05-03T00:37:40.539Z,4.05
2023-05-03T00:40:08.928Z,4.07
2023-05-03T00:42:37.120Z,4.06
2023-05-03T00:45:06.327Z,4.05
2023-05-03T00:47:33.345Z,3.97
2023-05-03T00:50:01.521Z,3.99
2023-05-03T00:52:29.796Z,3.87
2023-05-03T00:54:57.628Z,3.69
2023-05-03T00:57:26.277Z,3.63
2023-05-03T00:59:53.526Z,3.55
2023-05-03T01:02:20.340Z,3.88
2023-05-03T01:04:47.260Z,3.84
2023-05-03T01:07:28.777Z,3.78
2023-05-03T01:10:07.661Z,3.71
2023-05-03T01:13:06.501Z,3.79
2023-05-03T01:15:46.397Z,3.72
2023-05-03T01:18:24.415Z,3.64
2023-05-03T01:20:53.253Z,3.66
2023-05-03T01:23:55.917Z,3.70
2023-05-03T01:26:27.655Z,3.54
2023-05-03T01:28:55.465Z,3.64
2023-05-03T01:31:35.058Z,3.68
2023-05-03T01:34:06.567Z,3.64
2023-05-03T01:36:35.752Z,3.57
2023-05-03T01:39:10.790Z,3.60
2023-05-03T01:41:40.725Z,3.78
2023-05-03T01:44:09.089Z,3.58
2023-05-03T01:46:42.678Z,3.50
2023-05-03T01:49:09.459Z,3.47
2023-05-03T01:51:36.354Z,3.42
2023-05-03T01:54:03.211Z,3.39
2023-05-03T01:56:31.859Z,3.69
2023-05-03T01:58:58.572Z,3.80
2023-05-03T02:01:25.596Z,3.98
2023-05-03T02:03:52.433Z,3.99
2023-05-03T02:06:19.254Z,3.56
2023-05-03T02:08:46.256Z,3.42
2023-05-03T02:11:12.899Z,3.70
2023-05-03T02:13:39.793Z,3.76
2023-05-03T02:16:06.604Z,3.57
2023-05-03T02:18:33.903Z,3.27
2023-05-03T02:21:00.739Z,3.21
2023-05-03T02:23:27.617Z,3.21
2023-05-03T02:25:54.248Z,3.34
2023-05-03T02:28:20.884Z,3.06
2023-05-03T02:30:47.786Z,3.07
2023-05-03T02:33:14.491Z,3.02
2023-05-03T02:35:41.205Z,3.02
2023-05-03T02:38:07.873Z,2.90
2023-05-03T02:40:34.635Z,2.75
2023-05-03T02:43:02.679Z,2.61
2023-05-03T02:45:30.270Z,2.58
2023-05-03T02:47:57.147Z,2.66
2023-05-03T02:50:25.597Z,2.60
2023-05-03T02:52:52.320Z,2.36
2023-05-03T02:55:19.048Z,2.54
2023-05-03T02:57:47.009Z,2.59
2023-05-03T03:00:18.060Z,2.90
2023-05-03T03:02:44.838Z,3.05
2023-05-03T03:05:12.245Z,3.17
2023-05-03T03:07:40.573Z,3.29
2023-05-03T03:10:08.295Z,3.09
2023-05-03T03:12:38.779Z,2.97
2023-05-03T03:15:09.646Z,3.23
2023-05-03T03:17:39.651Z,3.08
2023-05-03T03:20:13.874Z,2.92
2023-05-03T03:22:45.648Z,2.91
2023-05-03T03:25:12.551Z,3.10
2023-05-03T03:27:39.929Z,2.95
2023-05-03T03:30:08.449Z,2.62
2023-05-03T03:32:41.546Z,2.54
2023-05-03T03:35:13.313Z,2.52
2023-05-03T03:37:40.316Z,2.55
2023-05-03T03:40:08.241Z,2.36
2023-05-03T03:42:36.655Z,2.65
2023-05-03T03:45:04.835Z,2.52
2023-05-03T03:47:31.650Z,2.50
2023-05-03T03:50:01.069Z,2.69
2023-05-03T03:52:30.110Z,2.81
2023-05-03T03:54:56.847Z,3.19
2023-05-03T03:57:25.290Z,3.21
2023-05-03T03:59:52.579Z,2.88
2023-05-03T04:02:19.288Z,2.69
2023-05-03T04:04:46.834Z,2.82
2023-05-03T04:07:15.609Z,2.75
2023-05-03T04:09:42.513Z,2.68
2023-05-03T04:12:09.563Z,2.49
2023-05-03T04:14:36.533Z,2.37
2023-05-03T04:17:03.353Z,2.29
2023-05-03T04:19:30.168Z,2.22
2023-05-03T04:21:56.925Z,2.26
2023-05-03T04:24:24.318Z,2.31
2023-05-03T04:26:51.743Z,2.34
2023-05-03T04:29:25.433Z,2.37
2023-05-03T04:31:52.317Z,2.38
2023-05-03T04:34:19.663Z,2.39
2023-05-03T04:36:49.960Z,2.37
2023-05-03T04:39:17.056Z,2.36
2023-05-03T04:41:46.376Z,2.42
2023-05-03T04:44:14.502Z,2.41
2023-05-03T04:46:43.518Z,2.51
2023-05-03T04:49:10.356Z,2.57
2023-05-03T04:51:37.320Z,2.67
2023-05-03T04:54:04.206Z,2.65
2023-05-03T04:56:31.724Z,2.67
2023-05-03T04:59:09.183Z,2.96
2023-05-03T05:01:37.511Z,3.11
2023-05-03T05:04:06.090Z,3.19
2023-05-03T05:06:39.352Z,3.35
2023-05-03T05:09:07.672Z,3.43
2023-05-03T05:11:34.786Z,3.37
2023-05-03T05:14:01.536Z,3.61
2023-05-03T05:16:28.418Z,3.63
2023-05-03T05:18:55.937Z,3.79
2023-05-03T05:21:25.766Z,3.91
2023-05-03T05:23:52.675Z,3.91
2023-05-03T05:26:19.437Z,3.95
2023-05-03T05:28:46.237Z,4.12
2023-05-03T05:31:13.614Z,4.28
2023-05-03T05:33:40.765Z,4.31
2023-05-03T05:36:08.079Z,4.46
2023-05-03T05:38:34.959Z,4.60
2023-05-03T05:41:03.504Z,4.75
2023-05-03T05:43:32.020Z,4.82
2023-05-03T05:45:59.290Z,4.97
2023-05-03T05:48:26.609Z,4.96
2023-05-03T05:50:53.790Z,5.19
2023-05-03T05:53:20.617Z,5.28
2023-05-03T05:55:54.736Z,5.43
2023-05-03T05:58:21.585Z,5.57
2023-05-03T06:00:52.834Z,5.55
2023-05-03T06:03:19.773Z,5.71
2023-05-03T06:05:49.500Z,5.75
2023-05-03T06:08:16.281Z,5.94
2023-05-03T06:10:42.977Z,5.97
2023-05-03T06:13:09.874Z,6.25
2023-05-03T06:15:36.993Z,6.45
2023-05-03T06:18:04.821Z,6.52
2023-05-03T06:20:31.694Z,6.47
2023-05-03T06:22:59.143Z,6.56
2023-05-03T06:25:26.261Z,6.82
2023-05-03T06:27:53.430Z,6.81
2023-05-03T06:30:25.828Z,7.13
2023-05-03T06:32:53.019Z,7.26
2023-05-03T06:35:22.145Z,7.20
2023-05-03T06:37:49.712Z,7.43
2023-05-03T06:40:16.553Z,7.71
2023-05-03T06:42:43.532Z,7.66
2023-05-03T06:45:14.231Z,8.03
2023-05-03T06:47:43.044Z,8.41
2023-05-03T06:50:10.885Z,8.48
2023-05-03T06:52:38.263Z,8.87
2023-05-03T06:55:05.299Z,8.53
2023-05-03T06:57:32.329Z,8.72
2023-05-03T06:59:59.512Z,9.30
2023-05-03T07:02:27.170Z,8.63
2023-05-03T07:04:54.163Z,8.90
2023-05-03T07:07:21.316Z,9.09
2023-05-03T07:09:48.319Z,8.65
2023-05-03T07:12:15.851Z,9.58
2023-05-03T07:14:43.050Z,9.12
2023-05-03T07:17:10.170Z,9.40
2023-05-03T07:19:37.679Z,9.35
2023-05-03T07:22:04.528Z,10.62
2023-05-03T07:24:31.475Z,11.44
2023-05-03T07:26:58.625Z,11.01
2023-05-03T07:29:26.298Z,11.49
2023-05-03T07:31:53.711Z,11.62
2023-05-03T07:34:21.138Z,11.66
2023-05-03T07:36:47.955Z,12.81
2023-05-03T07:39:14.715Z,13.30
2023-05-03T07:41:41.417Z,12.70
2023-05-03T07:44:08.291Z,11.17
2023-05-03T07:46:35.612Z,11.91
2023-05-03T07:49:07.202Z,12.10
2023-05-03T07:51:38.633Z,12.38
2023-05-03T07:54:06.452Z,12.82
2023-05-03T07:56:33.122Z,10.55
2023-05-03T08:01:30.163Z,11.06
2023-05-03T08:03:57.027Z,11.69
2023-05-03T08:06:27.974Z,12.93
2023-05-03T08:08:54.690Z,12.30
2023-05-03T08:11:21.500Z,13.40
2023-05-03T08:13:48.179Z,13.58
2023-05-03T08:16:14.994Z,13.20
2023-05-03T08:18:41.848Z,13.12
2023-05-03T08:21:09.869Z,12.74
2023-05-03T08:23:36.888Z,12.67
2023-05-03T08:26:04.465Z,12.18
2023-05-03T08:28:31.378Z,13.68
2023-05-03T08:30:58.483Z,14.67
2023-05-03T08:33:25.221Z,15.19
2023-05-03T08:35:52.774Z,12.16
2023-05-03T08:38:19.429Z,13.56
2023-05-03T08:40:50.328Z,11.58
2023-05-03T08:43:20.831Z,14.04
2023-05-03T08:45:47.703Z,12.99
2023-05-03T08:48:14.743Z,13.84
2023-05-03T08:50:44.562Z,13.72
2023-05-03T08:53:12.026Z,12.29
2023-05-03T08:55:39.060Z,11.77
2023-05-03T08:58:13.293Z,12.40
2023-05-03T09:00:45.248Z,12.00
2023-05-03T09:03:12.929Z,12.41
2023-05-03T09:05:41.486Z,11.94
2023-05-03T09:08:11.368Z,13.16
2023-05-03T09:10:40.298Z,14.90
2023-05-03T09:13:08.186Z,13.81
2023-05-03T09:15:35.561Z,13.71
2023-05-03T09:18:12.651Z,14.26
2023-05-03T09:20:41.065Z,14.31
2023-05-03T09:23:09.735Z,13.84
2023-05-03T09:25:46.707Z,15.09
2023-05-03T09:28:14.472Z,16.28
2023-05-03T09:30:42.392Z,12.90
2023-05-03T09:33:09.429Z,15.09
2023-05-03T09:35:36.380Z,15.52
2023-05-03T09:38:03.093Z,15.01
2023-05-03T09:40:29.994Z,14.45
2023-05-03T09:43:10.500Z,17.10
2023-05-03T09:45:38.677Z,16.39
2023-05-03T09:48:07.481Z,14.90
2023-05-03T09:50:36.454Z,16.22
2023-05-03T09:53:07.620Z,17.16
2023-05-03T09:55:35.222Z,17.92
2023-05-03T09:58:08.593Z,17.55
2023-05-03T10:00:39.306Z,18.00
2023-05-03T10:03:10.741Z,17.99
2023-05-03T10:05:43.699Z,17.28
2023-05-03T10:08:11.578Z,16.63
2023-05-03T10:10:41.444Z,16.13
2023-05-03T10:13:09.362Z,16.63
2023-05-03T10:15:38.688Z,15.58
2023-05-03T10:18:08.380Z,15.87
2023-05-03T10:20:50.456Z,14.85
2023-05-03T10:23:17.937Z,18.23
2023-05-03T10:26:07.306Z,17.73
2023-05-03T10:28:34.496Z,18.44
2023-05-03T10:31:02.507Z,16.25
2023-05-03T10:33:31.084Z,16.11
2023-05-03T10:36:00.609Z,15.30
2023-05-03T10:38:29.081Z,15.22
2023-05-03T10:40:57.125Z,16.48
2023-05-03T10:43:32.879Z,17.30
2023-05-03T10:46:01.195Z,18.30
2023-05-03T10:48:28.813Z,17.51
2023-05-03T10:50:56.800Z,16.00
2023-05-03T10:53:39.691Z,16.30
2023-05-03T10:56:11.786Z,19.28
2023-05-03T10:58:44.315Z,17.38
2023-05-03T11:01:13.370Z,17.71
2023-05-03T11:03:49.229Z,17.58
2023-05-03T11:06:36.607Z,17.26
2023-05-03T11:09:08.557Z,16.54
2023-05-03T11:11:39.897Z,15.94
2023-05-03T11:14:08.739Z,16.46
2023-05-03T11:16:47.816Z,16.74
2023-05-03T11:19:15.208Z,17.18
2023-05-03T11:21:43.184Z,17.60
2023-05-03T11:24:10.260Z,17.11
2023-05-03T11:26:37.939Z,16.29
2023-05-03T11:29:05.332Z,15.94
2023-05-03T11:31:32.704Z,16.55
2023-05-03T11:33:59.790Z,16.18
2023-05-03T11:36:28.015Z,16.32
2023-05-03T11:38:54.983Z,18.03
2023-05-03T11:41:21.858Z,17.17
2023-05-03T11:43:57.512Z,17.63
2023-05-03T11:46:35.154Z,17.40
2023-05-03T11:49:03.265Z,17.18
2023-05-03T11:51:31.480Z,16.86
2023-05-03T11:54:06.804Z,15.91
2023-05-03T11:56:36.817Z,18.32
2023-05-03T11:59:04.025Z,18.20
2023-05-03T12:01:30.843Z,18.74
2023-05-03T12:04:01.390Z,17.31
2023-05-03T12:06:32.190Z,16.97
2023-05-03T12:09:03.545Z,18.38
2023-05-03T12:11:33.278Z,17.90
2023-05-03T12:14:03.617Z,18.37
2023-05-03T12:16:47.555Z,16.80
2023-05-03T12:19:24.346Z,16.43
2023-05-03T12:22:04.500Z,17.38
2023-05-03T12:24:39.440Z,17.16
2023-05-03T12:27:08.612Z,18.67
2023-05-03T12:29:35.811Z,17.45
2023-05-03T12:32:04.426Z,18.84
2023-05-03T12:34:34.915Z,18.69
2023-05-03T12:37:04.859Z,19.21
2023-05-03T12:39:33.227Z,19.97
2023-05-03T12:44:34.434Z,18.55
2023-05-03T12:47:02.366Z,18.51
2023-05-03T12:49:29.433Z,18.90
2023-05-03T12:54:33.322Z,17.54
2023-05-03T12:57:08.252Z,18.80
2023-05-03T12:59:41.748Z,18.67
2023-05-03T13:04:57.694Z,18.64
2023-05-03T13:07:32.366Z,17.88
2023-05-03T13:12:34.324Z,18.42
2023-05-03T13:15:03.719Z,20.07
2023-05-03T13:17:31.850Z,18.74
2023-05-03T13:19:58.579Z,17.98
2023-05-03T13:22:25.422Z,18.60
2023-05-03T13:24:52.509Z,19.01
2023-05-03T13:27:19.321Z,20.89
2023-05-03T13:29:48.921Z,20.62
2023-05-03T13:32:16.373Z,17.44
2023-05-03T13:34:43.388Z,18.31
2023-05-03T13:37:11.726Z,19.39
2023-05-03T13:39:38.503Z,19.24
2023-05-03T13:42:05.499Z,18.82
2023-05-03T13:44:32.188Z,18.67
2023-05-03T13:46:58.853Z,18.76
2023-05-03T13:49:25.734Z,18.37
2023-05-03T13:51:52.656Z,19.65
2023-05-03T13:54:19.347Z,20.73
2023-05-03T13:56:46.203Z,18.50
2023-05-03T13:59:14.075Z,17.97
2023-05-03T14:01:41.428Z,19.04
2023-05-03T14:04:08.453Z,18.88
2023-05-03T14:06:35.276Z,19.91
2023-05-03T14:09:03.046Z,20.26
2023-05-03T14:11:30.605Z,19.26
2023-05-03T14:13:58.158Z,19.19
2023-05-03T14:18:56.440Z,18.46
2023-05-03T14:21:23.204Z,19.99
2023-05-03T14:23:50.680Z,21.09
2023-05-03T14:26:18.193Z,19.88
2023-05-03T14:28:45.180Z,18.51
2023-05-03T14:31:13.362Z,19.31
2023-05-03T14:33:40.347Z,21.15
2023-05-03T14:36:11.030Z,19.48
2023-05-03T14:38:37.859Z,18.65
2023-05-03T14:41:04.782Z,18.89
2023-05-03T14:43:32.071Z,19.37
2023-05-03T14:45:58.752Z,18.99
2023-05-03T14:48:25.608Z,18.66
2023-05-03T14:50:53.237Z,20.10
2023-05-03T14:53:20.268Z,20.99
2023-05-03T14:55:47.025Z,19.13
2023-05-03T14:58:13.983Z,19.53
2023-05-03T15:00:41.777Z,20.71
2023-05-03T15:03:12.177Z,19.54
2023-05-03T15:05:44.139Z,19.81
2023-05-03T15:08:11.366Z,19.55
2023-05-03T15:10:39.490Z,18.64
2023-05-03T15:13:06.574Z,18.88
2023-05-03T15:15:33.374Z,19.20
2023-05-03T15:18:00.043Z,19.34
2023-05-03T15:20:27.351Z,19.49
2023-05-03T15:22:54.051Z,19.58
2023-05-03T15:25:20.901Z,18.92
2023-05-03T15:27:47.665Z,17.58
2023-05-03T15:30:15.403Z,18.11
2023-05-03T15:32:42.342Z,19.09
2023-05-03T15:35:09.657Z,19.10
2023-05-03T15:37:38.040Z,19.84
2023-05-03T15:40:06.053Z,19.14
2023-05-03T15:42:32.922Z,18.95
2023-05-03T15:44:59.784Z,18.63
2023-05-03T15:47:27.078Z,18.52
2023-05-03T15:49:54.384Z,19.03
2023-05-03T15:52:21.585Z,19.30
2023-05-03T15:54:48.282Z,19.43
2023-05-03T15:57:15.182Z,18.95
2023-05-03T15:59:42.081Z,18.86
2023-05-03T16:02:09.296Z,18.71
2023-05-03T16:04:39.062Z,17.93
2023-05-03T16:07:07.728Z,18.41
2023-05-03T16:09:34.579Z,18.79
2023-05-03T16:12:01.489Z,18.23
2023-05-03T16:14:28.205Z,17.90
2023-05-03T16:16:55.147Z,18.41
2023-05-03T16:19:22.518Z,18.64
2023-05-03T16:21:49.255Z,18.53
2023-05-03T16:24:16.177Z,18.29
2023-05-03T16:26:43.100Z,18.38
2023-05-03T16:29:10.572Z,18.32
2023-05-03T16:31:37.454Z,18.42
2023-05-03T16:34:04.471Z,18.48
2023-05-03T16:36:33.283Z,18.02
2023-05-03T16:39:00.000Z,17.44
2023-05-03T16:41:27.041Z,17.69
2023-05-03T16:43:53.798Z,18.47
2023-05-03T16:46:21.952Z,18.01
2023-05-03T16:48:48.690Z,17.88
2023-05-03T16:51:20.574Z,18.00
2023-05-03T16:53:47.346Z,17.79
2023-05-03T16:56:13.997Z,17.91
2023-05-03T16:58:40.664Z,17.37
2023-05-03T17:01:08.010Z,17.34
2023-05-03T17:03:34.938Z,17.21
2023-05-03T17:06:03.719Z,17.04
2023-05-03T17:08:30.890Z,17.03
2023-05-03T17:10:58.030Z,16.70
2023-05-03T17:13:25.023Z,16.64
2023-05-03T17:15:51.721Z,16.61
2023-05-03T17:18:18.521Z,16.55
2023-05-03T17:20:45.328Z,16.50
2023-05-03T17:23:12.195Z,16.34
2023-05-03T17:25:39.029Z,16.47
2023-05-03T17:28:05.927Z,16.24
2023-05-03T17:30:32.828Z,16.18
2023-05-03T17:32:59.616Z,15.98
2023-05-03T17:35:26.650Z,16.00
2023-05-03T17:37:53.369Z,16.02
2023-05-03T17:40:20.131Z,15.80
2023-05-03T17:42:47.253Z,15.78
2023-05-03T17:45:14.206Z,15.86
2023-05-03T17:47:40.989Z,15.79
2023-05-03T17:50:08.328Z,15.78
2023-05-03T17:52:35.137Z,15.60
2023-05-03T17:55:02.797Z,15.71
2023-05-03T17:57:29.575Z,15.37
2023-05-03T17:59:56.329Z,15.34
2023-05-03T18:02:23.474Z,15.26
2023-05-03T18:04:50.189Z,15.29
2023-05-03T18:07:16.840Z,15.19
2023-05-03T18:09:43.766Z,14.98
2023-05-03T18:12:10.450Z,15.03
2023-05-03T18:14:37.266Z,14.91
2023-05-03T18:17:03.936Z,14.97
2023-05-03T18:19:31.480Z,14.79
2023-05-03T18:21:58.139Z,14.61
2023-05-03T18:24:24.839Z,14.69
2023-05-03T18:26:51.479Z,14.70
2023-05-03T18:29:18.198Z,14.50
2023-05-03T18:31:45.065Z,14.33
2023-05-03T18:34:16.751Z,14.35
2023-05-03T18:36:43.496Z,14.32
2023-05-03T18:39:10.484Z,14.16
2023-05-03T18:41:37.679Z,14.15
2023-05-03T18:44:04.519Z,14.10
2023-05-03T18:46:31.255Z,14.01
2023-05-03T18:48:57.961Z,13.98
2023-05-03T18:51:24.825Z,13.89
2023-05-03T18:53:51.871Z,13.86
2023-05-03T18:56:18.595Z,13.90
2023-05-03T18:58:47.574Z,13.68
2023-05-03T19:01:14.315Z,13.62
2023-05-03T19:03:41.025Z,13.62
2023-05-03T19:06:07.957Z,13.60
2023-05-03T19:08:34.886Z,13.48
2023-05-03T19:11:12.967Z,13.41
2023-05-03T19:13:40.078Z,13.28
2023-05-03T19:16:06.888Z,13.17
2023-05-03T19:18:33.736Z,13.22
2023-05-03T19:21:01.597Z,13.16
2023-05-03T19:23:28.231Z,13.17
2023-05-03T19:25:54.909Z,13.06
2023-05-03T19:28:21.689Z,13.06
2023-05-03T19:30:51.677Z,12.99
2023-05-03T19:33:19.292Z,12.88
2023-05-03T19:35:46.562Z,12.92
2023-05-03T19:38:14.493Z,12.79
2023-05-03T19:40:41.514Z,12.79
2023-05-03T19:43:08.211Z,12.70
2023-05-03T19:45:34.890Z,12.58
2023-05-03T19:48:01.745Z,12.61
2023-05-03T19:50:28.466Z,12.48
2023-05-03T19:52:55.103Z,12.32
2023-05-03T19:55:21.767Z,12.39
2023-05-03T19:57:48.447Z,12.27
2023-05-03T20:00:16.664Z,12.19
2023-05-03T20:02:43.425Z,12.19
2023-05-03T20:05:10.142Z,12.02
2023-05-03T20:07:37.557Z,12.02
2023-05-03T20:10:05.814Z,12.05
2023-05-03T20:12:33.996Z,12.00
2023-05-03T20:15:00.968Z,11.90
2023-05-03T20:17:27.827Z,11.89
2023-05-03T20:19:54.759Z,11.93
2023-05-03T20:22:21.697Z,11.84
2023-05-03T20:24:49.644Z,11.89
2023-05-03T20:27:17.311Z,11.86
2023-05-03T20:29:44.004Z,11.80
2023-05-03T20:32:10.752Z,12.03
2023-05-03T20:34:37.739Z,11.89
2023-05-03T20:37:04.439Z,11.74
2023-05-03T20:39:31.186Z,11.64
2023-05-03T20:41:58.458Z,11.66
2023-05-03T20:44:25.128Z,11.68
2023-05-03T20:46:51.860Z,11.54
2023-05-03T20:49:18.728Z,11.63
2023-05-03T20:51:45.481Z,11.59
2023-05-03T20:54:12.126Z,11.53
2023-05-03T20:56:38.786Z,11.62
2023-05-03T20:59:05.748Z,11.57
2023-05-03T21:01:32.564Z,11.54
2023-05-03T21:03:59.365Z,11.48
2023-05-03T21:06:27.335Z,11.29
2023-05-03T21:08:54.027Z,11.26
2023-05-03T21:11:21.029Z,11.22
2023-05-03T21:13:47.678Z,11.32
2023-05-03T21:16:14.501Z,11.30
2023-05-03T21:18:41.322Z,11.07
2023-05-03T21:21:08.051Z,11.06
2023-05-03T21:23:34.802Z,11.14
2023-05-03T21:26:01.527Z,11.00
2023-05-03T21:28:30.577Z,11.15
2023-05-03T21:30:57.298Z,11.04
2023-05-03T21:33:23.965Z,11.01
2023-05-03T21:35:50.710Z,11.02
2023-05-03T21:38:18.015Z,11.15
2023-05-03T21:40:47.070Z,10.96
2023-05-03T21:43:13.773Z,10.90
2023-05-03T21:45:48.380Z,11.07
2023-05-03T21:48:15.242Z,11.01
2023-05-03T21:50:41.981Z,10.90
2023-05-03T21:53:08.679Z,10.82
2023-05-03T21:55:35.666Z,10.85
2023-05-03T21:58:02.334Z,10.59
2023-05-03T22:00:29.124Z,10.44
2023-05-03T22:02:55.961Z,10.36
2023-05-03T22:05:22.743Z,10.49
2023-05-03T22:07:49.489Z,10.63
2023-05-03T22:10:16.591Z,10.59
2023-05-03T22:12:43.570Z,10.61
2023-05-03T22:15:11.103Z,10.41
2023-05-03T22:17:38.184Z,10.47
2023-05-03T22:20:06.726Z,10.27
2023-05-03T22:22:33.606Z,10.32
2023-05-03T22:25:00.625Z,10.16
2023-05-03T22:27:27.453Z,10.24
2023-05-03T22:29:54.263Z,10.28
2023-05-03T22:32:21.080Z,10.17
2023-05-03T22:34:47.869Z,10.09
2023-05-03T22:37:15.337Z,10.15
2023-05-03T22:39:42.310Z,10.13
2023-05-03T22:42:09.009Z,10.06
2023-05-03T22:44:36.979Z,9.88
2023-05-03T22:47:03.702Z,10.07
2023-05-03T22:49:30.499Z,9.91
2023-05-03T22:51:57.137Z,10.05
2023-05-03T22:54:24.062Z,10.05
2023-05-03T22:56:51.278Z,9.76
2023-05-03T22:59:17.999Z,9.73
2023-05-03T23:01:46.251Z,9.67
2023-05-03T23:04:13.281Z,9.64
2023-05-03T23:06:39.952Z,9.50
2023-05-03T23:09:06.662Z,9.38
2023-05-03T23:11:33.723Z,9.56
2023-05-03T23:14:00.671Z,9.40
2023-05-03T23:16:27.571Z,9.33
2023-05-03T23:18:55.681Z,9.22
2023-05-03T23:21:22.610Z,9.16
2023-05-03T23:23:49.455Z,9.10
2023-05-03T23:26:16.475Z,9.02
2023-05-03T23:28:43.586Z,9.04
2023-05-03T23:31:10.578Z,9.05
2023-05-03T23:33:37.776Z,9.06
2023-05-03T23:36:04.611Z,9.05
2023-05-03T23:38:31.792Z,8.97
2023-05-03T23:40:58.530Z,8.88
2023-05-03T23:43:25.207Z,8.85
2023-05-03T23:45:51.884Z,8.85
2023-05-03T23:48:18.654Z,9.07
2023-05-03T23:50:45.261Z,8.73
2023-05-03T23:53:12.001Z,8.71
2023-05-03T23:55:38.816Z,8.76
2023-05-03T23:58:05.571Z,8.57
